Time;durP1;ratioP1;P1;durP2;ratioP2;P2;SDS_P1;SDS_P2;PMS_P1;PMS_P2;Temp;Humidity;BMP_temperature;BMP_pressure;BME280_temperature;BME280_humidity;BME280_pressure;Samples;Min_cycle;Max_cycle;Signal;HPM_P1;HPM_P2
2021/04/05 00:00:21;;;;;;;4.90;3.57;;;1.60;99.90;;;;;;4976202;28;20183;-75
2021/04/05 00:02:47;;;;;;;6.20;3.30;;;1.60;99.90;;;;;;4975989;28;20192;-75
2021/04/05 00:05:16;;;;;;;6.53;3.60;;;1.60;99.90;;;;;;4975616;28;20897;-75
2021/04/05 00:07:46;;;;;;;6.70;3.87;;;1.60;99.90;;;;;;4975711;28;20563;-75
2021/04/05 00:10:15;;;;;;;7.07;3.33;;;1.60;99.90;;;;;;4974497;28;20420;-76
2021/04/05 00:12:41;;;;;;;7.50;3.87;;;1.60;99.90;;;;;;4976313;28;20414;-75
2021/04/05 00:15:09;;;;;;;5.83;3.83;;;1.60;99.90;;;;;;4974255;28;20798;-75
2021/04/05 00:17:36;;;;;;;6.87;3.40;;;1.60;99.90;;;;;;4974124;28;20200;-75
2021/04/05 00:20:29;;;;;;;6.07;3.33;;;1.60;99.90;;;;;;4975547;28;20764;-75
2021/04/05 00:22:55;;;;;;;6.87;3.50;;;1.50;99.90;;;;;;4969965;28;20423;-75
2021/04/05 00:25:21;;;;;;;6.10;4.00;;;1.50;99.90;;;;;;4975296;28;20407;-76
2021/04/05 00:27:47;;;;;;;4.97;3.27;;;1.50;99.90;;;;;;4975318;28;20586;-76
2021/04/05 00:30:21;;;;;;;5.73;3.67;;;1.60;99.90;;;;;;4975677;28;20411;-75
2021/04/05 00:32:47;;;;;;;8.93;3.03;;;1.50;99.90;;;;;;4975761;28;20483;-76
2021/04/05 00:35:22;;;;;;;4.80;2.93;;;1.50;99.90;;;;;;4974259;28;20555;-76
2021/04/05 00:37:49;;;;;;;6.77;3.37;;;1.60;99.90;;;;;;4975259;28;20512;-75
2021/04/05 00:40:17;;;;;;;5.60;3.00;;;1.70;99.90;;;;;;4975461;28;20412;-75
2021/04/05 00:42:44;;;;;;;5.90;3.70;;;1.50;99.90;;;;;;4974671;28;20458;-75
2021/04/05 00:45:13;;;;;;;6.60;3.17;;;1.60;99.90;;;;;;4975139;28;20419;-75
2021/04/05 00:47:59;;;;;;;4.90;2.90;;;1.50;99.90;;;;;;4975038;28;20515;-75
2021/04/05 00:50:34;;;;;;;4.90;2.70;;;1.50;99.90;;;;;;4974997;28;20558;-75
2021/04/05 00:53:01;;;;;;;5.27;2.63;;;1.60;99.90;;;;;;4973649;28;20822;-75
2021/04/05 00:55:27;;;;;;;3.50;2.60;;;1.50;99.90;;;;;;4974747;28;20775;-76
2021/04/05 00:57:54;;;;;;;6.00;3.37;;;1.50;99.90;;;;;;4974599;28;20463;-75
2021/04/05 01:00:49;;;;;;;4.00;3.10;;;1.60;99.90;;;;;;4973465;28;20184;-75
2021/04/05 01:03:17;;;;;;;7.37;3.17;;;1.50;99.90;;;;;;4971056;28;20416;-75
2021/04/05 01:05:45;;;;;;;4.60;2.53;;;1.50;99.90;;;;;;4974490;28;20924;-75
2021/04/05 01:08:12;;;;;;;6.10;2.70;;;1.60;99.90;;;;;;4974683;28;20498;-76
2021/04/05 01:10:38;;;;;;;3.40;2.60;;;1.50;99.90;;;;;;4973475;28;20420;-75
2021/04/05 01:13:05;;;;;;;4.77;2.77;;;1.50;99.90;;;;;;4974678;28;20660;-75
2021/04/05 01:15:31;;;;;;;5.73;2.67;;;1.40;99.90;;;;;;4974548;28;20277;-76
2021/04/05 01:17:57;;;;;;;6.33;3.03;;;1.40;99.90;;;;;;4974704;28;21056;-75
2021/04/05 01:20:23;;;;;;;5.80;2.77;;;1.40;99.90;;;;;;4973394;28;20183;-75
2021/04/05 01:22:51;;;;;;;4.33;3.10;;;1.40;99.90;;;;;;4973277;28;20182;-77
2021/04/05 01:25:17;;;;;;;6.63;3.17;;;1.20;99.90;;;;;;4974416;28;20415;-75
2021/04/05 01:27:44;;;;;;;5.73;2.83;;;1.30;99.90;;;;;;4973200;28;20450;-75
2021/04/05 01:30:44;;;;;;;11.80;3.03;;;1.40;99.90;;;;;;4974519;28;20451;-75
2021/04/05 01:33:22;;;;;;;4.60;2.57;;;1.20;99.90;;;;;;4965842;28;20789;-75
2021/04/05 01:35:54;;;;;;;3.93;2.53;;;1.20;99.90;;;;;;4974624;28;20432;-75
2021/04/05 01:38:32;;;;;;;6.30;3.07;;;1.20;99.90;;;;;;4974295;28;20462;-75
2021/04/05 01:41:01;;;;;;;7.27;3.07;;;1.20;99.90;;;;;;4974519;28;20480;-75
2021/04/05 01:43:27;;;;;;;8.23;3.20;;;1.20;99.90;;;;;;4974375;28;20434;-75
2021/04/05 01:45:55;;;;;;;6.13;3.03;;;1.20;99.90;;;;;;4974226;28;20913;-75
2021/04/05 01:48:23;;;;;;;3.67;2.83;;;1.10;99.90;;;;;;4974281;28;20263;-75
2021/04/05 01:50:49;;;;;;;4.67;2.67;;;1.00;99.90;;;;;;4974201;28;20430;-75
2021/04/05 01:53:18;;;;;;;3.67;2.50;;;1.10;99.90;;;;;;4974478;28;20817;-75
2021/04/05 01:55:46;;;;;;;3.30;2.70;;;1.10;99.90;;;;;;4978010;28;20507;-75
2021/04/05 01:58:11;;;;;;;4.13;2.83;;;1.10;99.90;;;;;;4978047;28;20927;-75
2021/04/05 02:00:39;;;;;;;3.70;3.07;;;1.10;99.90;;;;;;4978395;28;20498;-75
2021/04/05 02:03:06;;;;;;;4.73;2.90;;;1.30;99.90;;;;;;4978173;28;20235;-75
2021/04/05 02:05:32;;;;;;;4.33;2.90;;;1.20;99.90;;;;;;4982010;28;20408;-75
2021/04/05 02:07:58;;;;;;;4.10;2.87;;;1.20;99.90;;;;;;4988374;28;20427;-75
2021/04/05 02:10:25;;;;;;;7.03;2.90;;;1.10;99.90;;;;;;4978662;28;20418;-75
2021/04/05 02:12:52;;;;;;;2.87;2.23;;;1.10;99.90;;;;;;4977058;28;20645;-75
2021/04/05 02:15:19;;;;;;;5.53;3.07;;;1.10;99.90;;;;;;4976951;28;20514;-75
2021/04/05 02:17:46;;;;;;;5.13;2.87;;;1.10;99.90;;;;;;4978167;28;20467;-75
2021/04/05 02:20:14;;;;;;;6.17;3.33;;;1.10;99.90;;;;;;4978133;28;20404;-75
2021/04/05 02:22:42;;;;;;;5.87;3.23;;;1.00;99.90;;;;;;4978184;28;20506;-75
2021/04/05 02:25:13;;;;;;;8.40;3.70;;;1.10;99.90;;;;;;4977513;28;20408;-76
2021/04/05 02:27:40;;;;;;;5.07;2.90;;;1.00;99.90;;;;;;4977686;28;20789;-76
2021/04/05 02:30:07;;;;;;;6.00;3.07;;;1.00;99.90;;;;;;4977664;28;20412;-76
2021/04/05 02:32:33;;;;;;;4.90;3.17;;;1.00;99.90;;;;;;4977702;28;20473;-75
2021/04/05 02:34:59;;;;;;;5.03;2.77;;;1.00;99.90;;;;;;4976114;28;20416;-75
2021/04/05 02:37:24;;;;;;;4.03;2.60;;;1.10;99.90;;;;;;4976164;28;20441;-76
2021/04/05 02:39:50;;;;;;;4.73;3.20;;;1.00;99.90;;;;;;4977447;28;20216;-75
2021/04/05 02:42:21;;;;;;;4.93;2.83;;;1.10;99.90;;;;;;4977464;28;20172;-75
2021/04/05 02:44:46;;;;;;;5.30;2.90;;;1.10;99.90;;;;;;4975985;28;20173;-76
2021/04/05 02:47:13;;;;;;;6.70;3.40;;;1.10;99.90;;;;;;4977335;28;20444;-75
2021/04/05 02:49:40;;;;;;;5.03;2.80;;;1.10;99.90;;;;;;4978045;28;20176;-75
2021/04/05 02:52:07;;;;;;;9.40;4.40;;;1.10;99.90;;;;;;4977652;28;20412;-75
2021/04/05 02:54:33;;;;;;;13.03;7.10;;;1.00;99.90;;;;;;4977081;28;20411;-75
2021/04/05 02:56:59;;;;;;;21.00;10.77;;;1.10;99.90;;;;;;4975653;28;20546;-75
2021/04/05 02:59:25;;;;;;;22.70;10.93;;;1.10;99.90;;;;;;4977078;28;20547;-75
2021/04/05 03:01:52;;;;;;;30.97;12.60;;;1.00;99.90;;;;;;4977163;28;20580;-75
2021/04/05 03:04:19;;;;;;;31.10;12.53;;;1.00;99.90;;;;;;4976915;28;20262;-75
2021/04/05 03:06:49;;;;;;;40.93;17.07;;;1.00;99.90;;;;;;4976432;28;20431;-75
2021/04/05 03:09:14;;;;;;;33.93;13.67;;;1.00;99.90;;;;;;4976927;28;20916;-75
2021/04/05 03:11:43;;;;;;;28.50;10.83;;;1.00;99.90;;;;;;4976954;28;20423;-76
2021/04/05 03:14:10;;;;;;;41.37;16.57;;;1.00;99.90;;;;;;4975431;28;20176;-76
2021/04/05 03:16:39;;;;;;;29.03;12.40;;;1.00;99.90;;;;;;4975403;28;20447;-75
2021/04/05 03:19:06;;;;;;;13.47;6.90;;;1.00;99.90;;;;;;4976960;28;20487;-75
2021/04/05 03:21:32;;;;;;;16.67;10.33;;;1.00;99.90;;;;;;4976672;28;20440;-75
2021/04/05 03:24:03;;;;;;;10.73;6.43;;;1.10;99.90;;;;;;4976719;28;20408;-75
2021/04/05 03:26:28;;;;;;;9.77;6.50;;;1.10;99.90;;;;;;4975303;28;20432;-75
2021/04/05 03:28:55;;;;;;;6.67;4.87;;;1.10;99.90;;;;;;4976547;28;20424;-75
2021/04/05 03:31:24;;;;;;;4.93;2.97;;;1.10;99.90;;;;;;4975263;28;20221;-75
2021/04/05 03:34:04;;;;;;;7.23;3.27;;;1.30;99.90;;;;;;4976389;28;20416;-75
2021/04/05 03:36:35;;;;;;;6.97;2.60;;;1.30;99.90;;;;;;4976598;28;20423;-76
2021/04/05 03:39:02;;;;;;;3.30;2.17;;;1.50;99.90;;;;;;4976613;28;20439;-75
2021/04/05 03:41:33;;;;;;;5.27;2.97;;;1.60;99.90;;;;;;4976398;28;20411;-75
2021/04/05 03:44:17;;;;;;;4.10;2.30;;;1.60;99.90;;;;;;4976314;28;20411;-76
2021/04/05 03:46:45;;;;;;;3.83;2.30;;;1.70;99.90;;;;;;4976240;28;20504;-76
2021/04/05 03:49:34;;;;;;;12.47;2.50;;;1.80;99.90;;;;;;4976354;28;20510;-76
2021/04/05 03:52:13;;;;;;;4.13;2.27;;;1.80;99.90;;;;;;4976426;28;20955;-77
2021/04/05 03:54:47;;;;;;;3.73;2.40;;;1.80;99.90;;;;;;4976200;28;20400;-76
2021/04/05 03:57:18;;;;;;;3.90;2.27;;;1.90;99.90;;;;;;4976019;28;20454;-76
2021/04/05 03:59:49;;;;;;;5.27;2.37;;;1.80;99.90;;;;;;4974901;28;20467;-76
2021/04/05 04:02:21;;;;;;;4.60;2.80;;;1.70;99.90;;;;;;4976068;28;20419;-75
2021/04/05 04:05:22;;;;;;;4.93;2.80;;;1.70;99.90;;;;;;4974505;28;20423;-75
2021/04/05 04:07:49;;;;;;;3.20;2.43;;;1.60;99.90;;;;;;4975517;28;20953;-75
2021/04/05 04:10:17;;;;;;;5.00;2.77;;;1.60;99.90;;;;;;4975911;28;20399;-76
2021/04/05 04:12:47;;;;;;;7.70;2.53;;;1.50;99.90;;;;;;4974627;28;20944;-75
2021/04/05 04:15:14;;;;;;;3.57;2.90;;;1.50;99.90;;;;;;4975785;28;20451;-75
2021/04/05 04:17:42;;;;;;;6.63;2.77;;;1.50;99.90;;;;;;4974342;28;20439;-75
2021/04/05 04:20:13;;;;;;;4.47;2.60;;;1.50;99.90;;;;;;4975584;28;20502;-75
2021/04/05 04:22:40;;;;;;;2.93;2.37;;;1.40;99.90;;;;;;4975632;28;20419;-75
2021/04/05 04:25:07;;;;;;;3.23;2.20;;;1.50;99.90;;;;;;4975492;28;20502;-75
2021/04/05 04:27:33;;;;;;;5.03;2.67;;;1.60;99.90;;;;;;4975438;28;20437;-75
2021/04/05 04:29:59;;;;;;;7.07;2.90;;;1.80;99.90;;;;;;4974416;28;20415;-75
2021/04/05 04:32:25;;;;;;;5.20;2.60;;;1.70;99.90;;;;;;4974230;28;20176;-75
2021/04/05 04:34:52;;;;;;;5.97;2.70;;;1.80;99.90;;;;;;4975287;28;20414;-76
2021/04/05 04:37:18;;;;;;;3.10;2.50;;;1.80;99.90;;;;;;4974058;28;20440;-75
2021/04/05 04:39:44;;;;;;;3.13;2.43;;;1.80;99.90;;;;;;4973998;28;20824;-75
2021/04/05 04:42:11;;;;;;;5.53;2.73;;;1.90;99.90;;;;;;4975728;28;20412;-75
2021/04/05 04:44:37;;;;;;;3.97;2.40;;;1.90;99.90;;;;;;4975675;28;20905;-75
2021/04/05 04:47:04;;;;;;;3.80;2.50;;;1.90;99.90;;;;;;4975388;28;20424;-75
2021/04/05 04:49:30;;;;;;;3.07;2.47;;;1.90;99.90;;;;;;4975371;28;20752;-76
2021/04/05 04:51:55;;;;;;;6.27;2.43;;;1.90;99.90;;;;;;4975956;28;20415;-76
2021/04/05 04:54:21;;;;;;;3.87;2.60;;;2.00;99.90;;;;;;4975474;28;20184;-75
2021/04/05 04:56:47;;;;;;;4.23;2.80;;;1.90;99.90;;;;;;4975113;28;20223;-76
2021/04/05 04:59:13;;;;;;;3.20;2.50;;;1.90;99.90;;;;;;4974062;28;20204;-75
2021/04/05 05:01:44;;;;;;;3.20;2.40;;;2.10;99.90;;;;;;4975216;28;20176;-75
2021/04/05 05:04:40;;;;;;;8.03;2.63;;;2.10;99.90;;;;;;4975780;28;20172;-76
2021/04/05 05:07:08;;;;;;;4.77;2.83;;;2.20;99.90;;;;;;4966656;28;20440;-75
2021/04/05 05:09:34;;;;;;;4.83;2.53;;;2.20;99.90;;;;;;4975082;28;20447;-75
2021/04/05 05:12:00;;;;;;;3.77;2.73;;;2.40;99.90;;;;;;4975418;28;20411;-76
2021/04/05 05:14:26;;;;;;;5.30;2.27;;;2.30;99.90;;;;;;4974885;28;20416;-75
2021/04/05 05:16:53;;;;;;;4.30;2.60;;;2.40;99.90;;;;;;4975152;28;20454;-76
2021/04/05 05:19:20;;;;;;;3.23;2.63;;;2.40;99.90;;;;;;4973594;28;20203;-75
2021/04/05 05:21:48;;;;;;;3.10;2.13;;;2.60;99.90;;;;;;4973562;28;20423;-75
2021/04/05 05:24:17;;;;;;;6.03;2.83;;;2.60;99.90;;;;;;4973219;28;20416;-75
2021/04/05 05:26:44;;;;;;;4.97;2.80;;;2.60;99.90;;;;;;4973313;28;20439;-76
2021/04/05 05:29:12;;;;;;;4.63;3.07;;;2.70;99.90;;;;;;4972918;28;20423;-76
2021/04/05 05:31:40;;;;;;;4.83;2.90;;;2.80;99.90;;;;;;4974856;28;20755;-75
2021/04/05 05:34:16;;;;;;;4.53;2.67;;;2.80;99.90;;;;;;4973316;28;20834;-76
2021/04/05 05:36:43;;;;;;;5.63;2.93;;;2.90;99.90;;;;;;4973262;28;20897;-75
2021/04/05 05:39:11;;;;;;;5.93;2.87;;;3.00;99.90;;;;;;4974774;28;20487;-76
2021/04/05 05:42:23;;;;;;;3.73;2.80;;;3.00;99.90;;;;;;4974587;28;20404;-76
2021/04/05 05:45:04;;;;;;;4.43;2.60;;;3.40;99.90;;;;;;4974313;28;20453;-75
2021/04/05 05:48:06;;;;;;;5.23;2.47;;;3.90;99.90;;;;;;4974806;28;20974;-75
2021/04/05 05:50:50;;;;;;;3.60;2.50;;;4.10;99.90;;;;;;4974368;28;20415;-76
2021/04/05 05:53:38;;;;;;;4.80;2.67;;;4.40;99.90;;;;;;4974672;28;20405;-76
2021/04/05 05:56:22;;;;;;;3.97;2.83;;;4.60;99.90;;;;;;4974663;28;20826;-76
2021/04/05 05:59:10;;;;;;;5.53;2.70;;;4.70;99.90;;;;;;4976348;28;20530;-76
2021/04/05 06:01:38;;;;;;;5.93;2.93;;;4.70;99.90;;;;;;4973571;28;20416;-75
2021/04/05 06:04:33;;;;;;;3.20;2.27;;;4.60;99.90;;;;;;4974435;28;20507;-76
2021/04/05 06:07:22;;;;;;;4.53;3.03;;;4.60;99.90;;;;;;4973039;28;20443;-75
2021/04/05 06:10:10;;;;;;;4.30;2.57;;;4.70;99.90;;;;;;4974572;28;20415;-76
2021/04/05 06:12:48;;;;;;;4.07;2.90;;;4.80;99.90;;;;;;4974386;28;20418;-76
2021/04/05 06:15:18;;;;;;;4.67;3.20;;;4.90;99.90;;;;;;4973085;28;20795;-76
2021/04/05 06:17:57;;;;;;;6.57;2.50;;;5.20;99.90;;;;;;4974179;28;20939;-76
2021/04/05 06:20:34;;;;;;;3.73;2.83;;;5.50;99.90;;;;;;4974429;28;20173;-76
2021/04/05 06:23:18;;;;;;;3.60;2.73;;;5.70;99.70;;;;;;4972947;28;20411;-76
2021/04/05 06:26:03;;;;;;;3.80;2.77;;;5.90;98.60;;;;;;4974157;28;20422;-76
2021/04/05 06:28:44;;;;;;;7.40;3.07;;;6.10;97.50;;;;;;4974328;28;20164;-76
2021/04/05 06:31:51;;;;;;;6.20;3.03;;;6.30;96.30;;;;;;4973085;28;20458;-76
2021/04/05 06:34:21;;;;;;;3.07;2.47;;;6.40;95.50;;;;;;4974262;28;20184;-76
2021/04/05 06:37:16;;;;;;;4.03;2.90;;;6.60;94.30;;;;;;4974366;28;20561;-76
2021/04/05 06:39:48;;;;;;;3.37;2.20;;;6.70;93.70;;;;;;4965604;28;20242;-76
2021/04/05 06:42:35;;;;;;;5.03;3.10;;;6.70;92.90;;;;;;4977651;28;20170;-76
2021/04/05 06:45:25;;;;;;;3.23;2.30;;;6.80;92.60;;;;;;4977256;28;20651;-76
2021/04/05 06:48:24;;;;;;;4.77;2.90;;;6.90;92.10;;;;;;4977472;28;20736;-76
2021/04/05 06:51:27;;;;;;;3.23;2.90;;;6.90;91.30;;;;;;4977696;28;20169;-76
2021/04/05 06:54:17;;;;;;;5.50;2.80;;;7.00;91.20;;;;;;4977481;28;20256;-76
2021/04/05 06:57:07;;;;;;;3.97;2.67;;;7.10;90.90;;;;;;4976956;28;20514;-77
2021/04/05 06:59:48;;;;;;;3.20;2.50;;;7.40;89.40;;;;;;4977545;28;20562;-76
2021/04/05 07:02:19;;;;;;;6.43;3.30;;;7.50;88.50;;;;;;4977640;28;20180;-76
2021/04/05 07:05:10;;;;;;;7.67;2.60;;;7.70;86.20;;;;;;4975706;28;20180;-76
2021/04/05 07:07:47;;;;;;;3.80;2.77;;;7.70;85.80;;;;;;4977147;28;20663;-76
2021/04/05 07:10:24;;;;;;;5.33;2.80;;;7.80;85.40;;;;;;4976352;28;20630;-76
2021/04/05 07:12:57;;;;;;;2.33;2.10;;;8.00;83.90;;;;;;4978034;28;20216;-76
2021/04/05 07:15:42;;;;;;;4.40;2.90;;;8.40;81.50;;;;;;4977610;28;20174;-76
2021/04/05 07:18:45;;;;;;;4.50;2.57;;;8.80;79.10;;;;;;4977155;28;20264;-76
2021/04/05 07:21:49;;;;;;;4.43;2.00;;;9.10;75.70;;;;;;4976868;28;20181;-76
2021/04/05 07:24:53;;;;;;;4.93;2.50;;;9.10;74.70;;;;;;4956099;28;20208;-76
2021/04/05 07:27:48;;;;;;;5.70;2.67;;;9.40;74.30;;;;;;4967775;28;20290;-76
2021/04/05 07:30:25;;;;;;;4.77;2.40;;;10.00;72.10;;;;;;4976807;28;20178;-77
2021/04/05 07:33:06;;;;;;;2.67;2.30;;;10.20;68.50;;;;;;4976824;28;20165;-76
2021/04/05 07:35:50;;;;;;;11.70;4.30;;;10.20;68.60;;;;;;4976426;28;20244;-76
2021/04/05 07:38:24;;;;;;;3.90;2.40;;;10.20;68.00;;;;;;4977900;28;20193;-75
2021/04/05 07:40:57;;;;;;;3.80;2.43;;;10.60;67.40;;;;;;4975619;28;20176;-76
2021/04/05 07:43:51;;;;;;;3.37;2.30;;;10.70;65.90;;;;;;4975185;28;20176;-76
2021/04/05 07:46:26;;;;;;;3.57;2.37;;;10.90;65.00;;;;;;4976495;28;20673;-76
2021/04/05 07:49:01;;;;;;;2.83;2.27;;;11.20;65.00;;;;;;4976374;28;20168;-76
2021/04/05 07:51:54;;;;;;;3.03;1.83;;;11.50;62.70;;;;;;4976250;28;20579;-76
2021/04/05 07:54:24;;;;;;;4.43;2.03;;;11.80;61.70;;;;;;4974870;28;20548;-76
2021/04/05 07:57:20;;;;;;;5.97;2.10;;;11.60;60.10;;;;;;4976254;28;20212;-76
2021/04/05 08:00:04;;;;;;;3.23;2.30;;;11.70;60.00;;;;;;4971218;28;20768;-76
2021/04/05 08:03:04;;;;;;;10.40;4.13;;;11.70;60.40;;;;;;4977074;28;20160;-76
2021/04/05 08:05:39;;;;;;;5.20;2.60;;;11.30;60.40;;;;;;4975618;28;20311;-76
2021/04/05 08:08:35;;;;;;;3.77;2.50;;;11.30;61.00;;;;;;4976670;28;20175;-76
2021/04/05 08:11:33;;;;;;;3.47;2.03;;;11.30;60.80;;;;;;4975697;28;20270;-76
2021/04/05 08:14:20;;;;;;;5.53;2.03;;;11.70;60.20;;;;;;4975579;28;20184;-76
2021/04/05 08:17:11;;;;;;;8.33;2.83;;;12.00;59.20;;;;;;4976402;28;20199;-76
2021/04/05 08:20:00;;;;;;;4.07;2.57;;;11.80;57.90;;;;;;4976795;28;20192;-76
2021/04/05 08:22:44;;;;;;;5.10;2.17;;;12.20;58.20;;;;;;4976301;28;20191;-76
2021/04/05 08:25:27;;;;;;;4.97;2.83;;;12.60;57.00;;;;;;4976097;28;20522;-77
2021/04/05 08:28:16;;;;;;;6.50;3.00;;;12.50;57.10;;;;;;4975977;28;20200;-76
2021/04/05 08:31:03;;;;;;;3.27;2.57;;;12.60;57.10;;;;;;4975562;28;20635;-78
2021/04/05 08:33:56;;;;;;;3.27;2.37;;;13.00;56.60;;;;;;4974814;28;20172;-75
2021/04/05 08:36:39;;;;;;;6.40;2.10;;;12.90;56.50;;;;;;4974563;28;20195;-77
2021/04/05 08:39:13;;;;;;;8.07;2.50;;;12.80;56.70;;;;;;4976183;28;20195;-75
2021/04/05 08:41:54;;;;;;;3.33;1.90;;;12.70;57.30;;;;;;4975555;28;20176;-75
2021/04/05 08:44:52;;;;;;;4.03;2.00;;;13.00;57.30;;;;;;4975769;28;20165;-76
2021/04/05 08:47:41;;;;;;;4.13;2.20;;;12.80;57.00;;;;;;4976196;28;20226;-76
2021/04/05 08:50:12;;;;;;;4.80;3.00;;;12.30;57.20;;;;;;4976324;28;20183;-76
2021/04/05 08:52:45;;;;;;;3.37;2.20;;;12.20;57.20;;;;;;4976269;28;20168;-76
2021/04/05 08:55:14;;;;;;;3.60;2.13;;;12.30;56.80;;;;;;4975586;28;20167;-75
2021/04/05 08:57:51;;;;;;;4.03;1.93;;;11.90;58.20;;;;;;4974059;28;20298;-75
2021/04/05 09:00:17;;;;;;;4.20;2.10;;;11.80;57.80;;;;;;4975695;28;20168;-75
2021/04/05 09:02:48;;;;;;;3.40;2.10;;;11.70;58.10;;;;;;4974470;28;20622;-75
2021/04/05 09:05:20;;;;;;;5.03;1.83;;;11.90;58.20;;;;;;4980706;28;20167;-76
2021/04/05 09:07:46;;;;;;;2.97;2.00;;;11.80;56.90;;;;;;4988968;28;20195;-76
2021/04/05 09:10:13;;;;;;;4.27;2.00;;;11.90;57.50;;;;;;4994933;28;20178;-75
2021/04/05 09:12:42;;;;;;;3.60;1.80;;;11.80;57.10;;;;;;4995016;28;20191;-76
2021/04/05 09:15:26;;;;;;;3.93;2.00;;;11.70;57.00;;;;;;4995052;28;20282;-76
2021/04/05 09:18:08;;;;;;;6.70;2.03;;;11.40;56.90;;;;;;4975178;28;20250;-76
2021/04/05 09:21:00;;;;;;;3.30;1.67;;;11.20;57.30;;;;;;4974348;28;20536;-76
2021/04/05 09:23:50;;;;;;;5.27;2.23;;;10.90;57.70;;;;;;4977101;28;20180;-76
2021/04/05 09:26:47;;;;;;;5.73;2.70;;;11.20;58.40;;;;;;4975304;28;20275;-77
2021/04/05 09:29:21;;;;;;;3.47;1.90;;;11.30;58.10;;;;;;4975519;28;20570;-76
2021/04/05 09:32:24;;;;;;;7.13;3.17;;;11.30;56.90;;;;;;4975613;28;20171;-77
2021/04/05 09:35:27;;;;;;;2.77;2.23;;;11.40;57.70;;;;;;4980907;28;20254;-76
2021/04/05 09:38:02;;;;;;;4.77;2.63;;;11.40;57.00;;;;;;4991130;28;20688;-76
2021/04/05 09:40:37;;;;;;;3.27;2.60;;;11.60;56.70;;;;;;4982405;28;20180;-75
2021/04/05 09:43:39;;;;;;;3.10;2.00;;;11.80;57.30;;;;;;4976095;28;20586;-76
2021/04/05 09:46:42;;;;;;;3.67;2.20;;;11.60;55.20;;;;;;4988580;28;20223;-76
2021/04/05 09:49:29;;;;;;;3.37;1.80;;;11.70;55.50;;;;;;4975689;28;20176;-76
2021/04/05 09:52:25;;;;;;;4.53;1.80;;;11.50;54.20;;;;;;4975122;28;20539;-76
2021/04/05 09:54:57;;;;;;;3.23;2.10;;;11.60;54.60;;;;;;4986879;28;20176;-75
2021/04/05 09:57:37;;;;;;;1.90;1.53;;;11.40;54.70;;;;;;4978740;28;20219;-75
2021/04/05 10:00:12;;;;;;;6.00;2.43;;;11.40;55.00;;;;;;4982996;28;20203;-76
2021/04/05 10:02:54;;;;;;;4.37;2.10;;;11.40;54.90;;;;;;4979064;28;20218;-76
2021/04/05 10:05:23;;;;;;;3.43;2.00;;;11.60;54.50;;;;;;4963137;28;20211;-76
2021/04/05 10:07:51;;;;;;;3.70;1.90;;;11.60;54.20;;;;;;4995718;28;20274;-75
2021/04/05 10:10:18;;;;;;;5.43;2.53;;;11.50;55.00;;;;;;4995195;28;20190;-75
2021/04/05 10:12:46;;;;;;;4.20;2.07;;;11.30;55.50;;;;;;4994174;28;20256;-75
2021/04/05 10:15:15;;;;;;;3.20;2.23;;;11.40;55.70;;;;;;4996876;28;20255;-75
2021/04/05 10:17:55;;;;;;;3.13;1.83;;;11.40;55.90;;;;;;4998205;28;20219;-76
2021/04/05 10:20:27;;;;;;;7.30;2.20;;;11.40;56.30;;;;;;4998405;28;20237;-76
2021/04/05 10:22:58;;;;;;;2.90;2.00;;;11.40;56.20;;;;;;4998085;28;20182;-76
2021/04/05 10:25:25;;;;;;;4.00;2.17;;;11.40;56.20;;;;;;4997893;28;20161;-76
2021/04/05 10:27:57;;;;;;;5.30;1.97;;;11.40;56.90;;;;;;4997795;28;20203;-75
2021/04/05 10:30:34;;;;;;;3.30;2.10;;;11.60;57.50;;;;;;4997656;28;20172;-76
2021/04/05 10:33:07;;;;;;;1.67;1.43;;;11.50;56.70;;;;;;4996465;28;20230;-75
2021/04/05 10:35:45;;;;;;;7.13;2.13;;;11.60;56.10;;;;;;4997957;28;20175;-75
2021/04/05 10:38:11;;;;;;;2.77;1.93;;;11.90;56.10;;;;;;4997654;28;20191;-76
2021/04/05 10:40:38;;;;;;;3.07;2.27;;;12.20;56.50;;;;;;4997835;28;20701;-76
2021/04/05 10:43:16;;;;;;;3.57;2.10;;;12.70;55.60;;;;;;4997660;28;20186;-76
2021/04/05 10:45:46;;;;;;;3.80;2.03;;;13.20;55.50;;;;;;4994520;28;20214;-75
2021/04/05 10:48:24;;;;;;;5.10;2.20;;;13.40;54.10;;;;;;4995772;28;20567;-76
2021/04/05 10:50:58;;;;;;;2.37;1.90;;;13.20;53.10;;;;;;4996417;28;20552;-76
2021/04/05 10:53:27;;;;;;;2.67;1.70;;;13.10;52.60;;;;;;4995330;28;20182;-76
2021/04/05 10:55:57;;;;;;;2.77;1.70;;;13.50;52.70;;;;;;4996409;28;20176;-76
2021/04/05 10:58:31;;;;;;;2.40;1.20;;;13.40;52.30;;;;;;4996362;28;20592;-75
2021/04/05 11:01:00;;;;;;;4.03;1.77;;;13.10;51.50;;;;;;4995306;28;20185;-76
2021/04/05 11:03:31;;;;;;;3.03;1.83;;;13.60;52.40;;;;;;4994869;28;20184;-76
2021/04/05 11:06:05;;;;;;;2.87;1.63;;;13.80;51.80;;;;;;4996172;28;20164;-76
2021/04/05 11:08:34;;;;;;;3.53;1.77;;;13.90;52.50;;;;;;4995976;28;20207;-76
2021/04/05 11:11:21;;;;;;;2.27;1.63;;;13.90;52.40;;;;;;4994712;28;20176;-76
2021/04/05 11:13:52;;;;;;;9.53;2.53;;;14.10;52.60;;;;;;4996411;28;20296;-76
2021/04/05 11:16:20;;;;;;;3.77;1.87;;;14.50;53.40;;;;;;4995745;28;20272;-76
2021/04/05 11:18:55;;;;;;;2.37;1.50;;;15.00;52.50;;;;;;4996216;28;20713;-76
2021/04/05 11:21:31;;;;;;;4.23;1.90;;;14.90;51.40;;;;;;4996848;28;20167;-76
2021/04/05 11:23:58;;;;;;;2.83;1.60;;;14.90;50.50;;;;;;4996315;28;20169;-77
2021/04/05 11:26:34;;;;;;;5.03;1.87;;;14.60;50.50;;;;;;4995565;28;20192;-77
2021/04/05 11:29:05;;;;;;;2.97;1.90;;;14.30;50.40;;;;;;4995328;28;20188;-77
2021/04/05 11:31:36;;;;;;;4.43;1.70;;;14.10;51.40;;;;;;4994796;28;20196;-76
2021/04/05 11:34:03;;;;;;;2.67;1.77;;;14.20;51.10;;;;;;4996105;28;20180;-76
2021/04/05 11:36:50;;;;;;;3.63;1.60;;;14.40;51.00;;;;;;4994865;28;20203;-76
2021/04/05 11:39:18;;;;;;;1.93;1.30;;;14.90;50.80;;;;;;4996269;28;20199;-77
2021/04/05 11:41:53;;;;;;;3.90;1.53;;;15.10;49.40;;;;;;4996108;28;20654;-76
2021/04/05 11:44:28;;;;;;;2.33;1.53;;;15.10;49.40;;;;;;4996042;28;20161;-77
2021/04/05 11:46:56;;;;;;;5.20;1.70;;;15.00;48.10;;;;;;4995535;28;20594;-76
2021/04/05 11:49:28;;;;;;;2.77;1.40;;;14.70;48.40;;;;;;4994915;28;20181;-77
2021/04/05 11:52:16;;;;;;;2.50;1.50;;;15.00;48.60;;;;;;4996152;28;20576;-76
2021/04/05 11:54:59;;;;;;;4.40;1.37;;;15.40;47.60;;;;;;4995787;28;20525;-76
2021/04/05 11:57:35;;;;;;;3.40;1.30;;;15.10;45.80;;;;;;4995348;28;20216;-76
2021/04/05 12:00:03;;;;;;;2.13;1.40;;;14.90;45.80;;;;;;4995100;28;20659;-76
2021/04/05 12:02:52;;;;;;;1.70;1.40;;;15.00;46.00;;;;;;4996467;28;20197;-76
2021/04/05 12:05:26;;;;;;;3.27;1.33;;;15.80;46.40;;;;;;4993982;28;20198;-76
2021/04/05 12:08:01;;;;;;;1.77;1.40;;;15.80;45.90;;;;;;4993616;28;20203;-76
2021/04/05 12:10:30;;;;;;;2.13;1.40;;;15.70;46.20;;;;;;4993912;28;20177;-77
2021/04/05 12:13:06;;;;;;;3.57;1.63;;;15.50;45.60;;;;;;4995138;28;20205;-77
2021/04/05 12:15:33;;;;;;;4.63;1.57;;;15.70;44.80;;;;;;4993298;28;20628;-77
2021/04/05 12:18:01;;;;;;;3.57;1.50;;;16.20;45.70;;;;;;4993659;28;20227;-76
2021/04/05 12:20:29;;;;;;;3.43;1.53;;;16.10;45.10;;;;;;4995050;28;20205;-77
2021/04/05 12:23:06;;;;;;;2.83;1.57;;;16.70;45.60;;;;;;4994723;28;20192;-77
2021/04/05 12:25:37;;;;;;;3.27;1.40;;;16.30;45.50;;;;;;4995561;28;20153;-77
2021/04/05 12:28:06;;;;;;;1.57;1.30;;;16.50;46.50;;;;;;4993756;28;20201;-76
2021/04/05 12:30:33;;;;;;;4.00;1.20;;;16.60;44.70;;;;;;4994820;28;20225;-77
2021/04/05 12:33:00;;;;;;;4.60;1.60;;;15.70;44.00;;;;;;4995198;28;20213;-76
2021/04/05 12:35:27;;;;;;;1.97;1.43;;;15.60;44.30;;;;;;4995054;28;20184;-77
2021/04/05 12:37:54;;;;;;;2.33;1.40;;;15.30;45.20;;;;;;4981280;28;20190;-76
2021/04/05 12:40:24;;;;;;;3.97;1.90;;;15.40;45.90;;;;;;4974198;28;20177;-76
2021/04/05 12:42:52;;;;;;;2.27;1.50;;;15.30;46.20;;;;;;4975641;28;20163;-76
2021/04/05 12:45:20;;;;;;;2.97;1.60;;;15.20;45.00;;;;;;4973827;28;20184;-76
2021/04/05 12:47:51;;;;;;;4.27;2.00;;;14.80;45.70;;;;;;4975383;28;20687;-76
2021/04/05 12:50:23;;;;;;;4.20;1.67;;;14.60;46.90;;;;;;4990534;28;20169;-76
2021/04/05 12:52:50;;;;;;;3.27;1.60;;;14.50;47.20;;;;;;4975017;28;20170;-77
2021/04/05 12:55:18;;;;;;;2.23;1.70;;;14.40;48.20;;;;;;4975462;28;20188;-76
2021/04/05 12:57:44;;;;;;;2.93;1.60;;;14.60;47.80;;;;;;4980411;28;20273;-76
2021/04/05 13:00:13;;;;;;;3.03;1.90;;;14.30;46.70;;;;;;4992504;28;20345;-77
2021/04/05 13:02:39;;;;;;;4.03;1.87;;;13.90;48.10;;;;;;4994838;28;20596;-76
2021/04/05 13:05:19;;;;;;;4.13;2.03;;;13.90;48.40;;;;;;4995750;28;20662;-77
2021/04/05 13:08:02;;;;;;;4.13;1.60;;;13.40;48.80;;;;;;4993609;28;20215;-76
2021/04/05 13:10:37;;;;;;;2.90;1.67;;;13.00;49.80;;;;;;4993548;28;20250;-77
2021/04/05 13:13:11;;;;;;;2.43;1.80;;;12.90;49.20;;;;;;4994401;28;20159;-76
2021/04/05 13:15:41;;;;;;;4.23;2.10;;;12.70;49.60;;;;;;4994118;28;20234;-76
2021/04/05 13:18:22;;;;;;;2.83;1.80;;;12.60;49.50;;;;;;4994962;28;20524;-76
2021/04/05 13:20:53;;;;;;;3.37;2.20;;;12.70;50.70;;;;;;4993204;28;20167;-76
2021/04/05 13:23:24;;;;;;;9.50;2.57;;;12.70;50.50;;;;;;4994187;28;20548;-76
2021/04/05 13:26:06;;;;;;;3.23;2.20;;;12.60;51.30;;;;;;4993126;28;20199;-75
2021/04/05 13:28:33;;;;;;;5.17;2.10;;;12.90;51.00;;;;;;4994350;28;20668;-76